Irvington, AL (36544)

7:03 AM CST on January 19, 2017 (GMT -0600)
Driftwood | | Change Station
Active Advisory: Marine Fog Advisory

Elev 89 ft 30.45 °N, 88.22 °W | Updated 7 seconds ago

Overcast
Overcast
73.6 °F
Feels Like 73.6 °F
N
6.0
Wind Variable Wind from SSW
Gusts 9.8 mph

Today
High -- | Low -- °F
--% Chance of Precip.
Yesterday
High -- | Low -- °F
Precip. -- in
Pressure 29.97 in
Visibility 3.0 miles
Clouds Overcast 400 ft
Dew Point 73 °F
Humidity 99%
Rainfall 0.00 in
Snow Depth Not available.
6:49 AM 5:18 PM
Waning Gibbous, 54% visible
METAR KMOB 191256Z 15009KT 3SM -RA BR OVC004 21/19 A2998 RMK AO2 SLP149 P0001 T02110194
Pressure 29.97 in
Visibility 3.0 miles
Clouds Overcast 400 ft
Dew Point 73 °F
Humidity 99%
Rainfall 0.00 in
Snow Depth Not available.
6:49 AM 5:18 PM
Waning Gibbous, 54% visible
METAR KMOB 191256Z 15009KT 3SM -RA BR OVC004 21/19 A2998 RMK AO2 SLP149 P0001 T02110194

Get Your Daily Forecast Email!

Thanks for signing up!

Be on the lookout for a verification email in your inbox.

You'll start receiving the daily forecast at 8 AM.

×

10-Day Weather Forecast

Almanac

Astronomy

Jan. 19, 2017 Rise Set
Actual Time
Civil Twilight
Nautical Twilight
Astronomical Twilight
Moon
Length of Visible Light
Length of Day
Tomorrow will be .
, % of the Moon is Illuminated

Today's Extremes

State Highs State Lows

Community

WunderPhotos

Upload Photos

1,962,540 photos uploaded!

WunderBlog® & News

Nearby

Air Quality

  Air Quality AQ Index Pollutant
Not available.

Snow Depth

Station Depth Elevation

Earthquake Activity

City Distance Mag. Time & Date
Minimum magnitude displayed is 2.5.

Coastal Water Temperatures

Place Temperature

Stations

Nearby Weather Stations

Station Location Temp. Windchill Dew Point Humidity Wind Precip. Elev Updated Type
                   

Watches & Warnings

Marine Fog Advisory
Issued: 5:23 AM CST Jan. 19, 2017 – National Weather Service

... Dense fog advisory remains in effect until noon CST today...

* visibility... 1 mile or less.

Precautionary/preparedness actions...

A dense fog advisory means visibilities will frequently be
reduced to less than one mile. Inexperienced mariners...
especially those operating smaller vessels should avoid
navigating in these conditions.